createdAt,value
2023-03-26T00:01:46.628Z,99630.75
2023-03-26T00:03:44.933Z,99632.53
2023-03-26T00:05:40.193Z,99634.84
2023-03-26T00:07:35.272Z,99625.34
2023-03-26T00:09:31.296Z,99626.16
2023-03-26T00:11:29.372Z,99640.38
2023-03-26T00:13:24.787Z,99624.53
2023-03-26T00:15:22.473Z,99642.03
2023-03-26T00:17:18.019Z,99640.91
2023-03-26T00:19:14.034Z,99632.91
2023-03-26T00:21:10.603Z,99638.31
2023-03-26T00:23:05.810Z,99643.22
2023-03-26T00:25:01.534Z,99635.53
2023-03-26T00:26:57.030Z,99638.16
2023-03-26T00:28:52.609Z,99627.50
2023-03-26T00:30:50.957Z,99621.28
2023-03-26T00:32:53.393Z,99647.66
2023-03-26T00:34:52.124Z,99646.84
2023-03-26T00:36:47.450Z,99643.09
2023-03-26T00:38:43.711Z,99649.31
2023-03-26T00:40:38.774Z,99636.88
2023-03-26T00:42:34.003Z,99640.97
2023-03-26T00:44:29.354Z,99640.31
2023-03-26T00:46:27.846Z,99636.34
2023-03-26T00:48:34.479Z,99637.31
2023-03-26T00:50:39.280Z,99639.28
2023-03-26T00:52:36.294Z,99638.59
2023-03-26T00:54:32.025Z,99640.56
2023-03-26T00:56:27.961Z,99637.09
2023-03-26T00:58:23.064Z,99643.69
2023-03-26T01:00:21.115Z,99636.66
2023-03-26T01:02:22.556Z,99634.16
2023-03-26T01:04:28.364Z,99642.72
2023-03-26T01:06:27.963Z,99649.41
2023-03-26T01:08:30.749Z,99642.81
2023-03-26T01:10:26.386Z,99656.59
2023-03-26T01:12:24.403Z,99634.13
2023-03-26T01:14:23.658Z,99654.41
2023-03-26T01:16:25.598Z,99660.19
2023-03-26T01:18:26.466Z,99651.66
2023-03-26T01:20:26.933Z,99664.59
2023-03-26T01:22:24.582Z,99664.75
2023-03-26T01:24:22.620Z,99661.59
2023-03-26T01:26:32.443Z,99661.53
2023-03-26T01:28:32.137Z,99673.81
2023-03-26T01:30:34.250Z,99688.72
2023-03-26T01:32:40.623Z,99682.41
2023-03-26T01:34:49.753Z,99673.22
2023-03-26T01:36:56.072Z,99672.28
2023-03-26T01:39:00.576Z,99673.56
2023-03-26T01:41:04.921Z,99667.97
2023-03-26T01:43:07.480Z,99662.97
2023-03-26T01:45:08.421Z,99677.31
2023-03-26T01:47:04.022Z,99667.28
2023-03-26T01:48:59.395Z,99657.53
2023-03-26T01:50:56.488Z,99657.53
2023-03-26T01:52:52.206Z,99665.56
2023-03-26T01:54:47.724Z,99682.75
2023-03-26T01:56:57.110Z,99688.16
2023-03-26T01:59:02.613Z,99679.34
2023-03-26T02:01:05.872Z,99675.72
2023-03-26T02:03:22.500Z,99681.78
2023-03-26T02:05:23.624Z,99674.50
2023-03-26T02:07:28.808Z,99676.69
2023-03-26T02:09:30.652Z,99681.09
2023-03-26T02:11:34.827Z,99694.19
2023-03-26T02:13:34.665Z,99692.97
2023-03-26T02:15:29.802Z,99698.06
2023-03-26T02:17:25.325Z,99679.88
2023-03-26T02:19:21.946Z,99684.28
2023-03-26T02:21:21.516Z,99683.31
2023-03-26T02:23:16.561Z,99681.69
2023-03-26T02:25:13.666Z,99696.84
2023-03-26T02:27:09.668Z,99683.22
2023-03-26T02:29:07.667Z,99683.66
2023-03-26T02:31:03.532Z,99686.81
2023-03-26T02:33:01.901Z,99693.03
2023-03-26T02:34:57.344Z,99679.09
2023-03-26T02:36:52.790Z,99687.91
2023-03-26T02:38:47.986Z,99693.03
2023-03-26T02:40:44.081Z,99692.34
2023-03-26T02:42:39.120Z,99691.50
2023-03-26T02:44:38.915Z,99688.88
2023-03-26T02:46:34.377Z,99688.88
2023-03-26T02:48:29.692Z,99685.47
2023-03-26T02:50:24.826Z,99694.81
2023-03-26T02:52:20.624Z,99683.66
2023-03-26T02:54:16.861Z,99699.34
2023-03-26T02:56:12.723Z,99686.94
2023-03-26T02:58:07.976Z,99693.16
2023-03-26T03:00:14.366Z,99689.56
2023-03-26T03:02:09.508Z,99698.09
2023-03-26T03:04:08.597Z,99695.47
2023-03-26T03:06:03.613Z,99696.16
2023-03-26T03:07:59.639Z,99695.34
2023-03-26T03:09:54.763Z,99693.53
2023-03-26T03:11:50.341Z,99695.19
2023-03-26T03:13:45.854Z,99697.69
2023-03-26T03:15:44.306Z,99694.75
2023-03-26T03:17:39.410Z,99697.50
2023-03-26T03:19:35.130Z,99700.00
2023-03-26T03:21:31.388Z,99705.09
2023-03-26T03:23:26.755Z,99710.34
2023-03-26T03:25:22.340Z,99703.97
2023-03-26T03:27:19.584Z,99711.03
2023-03-26T03:29:14.984Z,99711.16
2023-03-26T03:31:13.082Z,99705.09
2023-03-26T03:33:08.556Z,99708.53
2023-03-26T03:35:03.936Z,99705.09
2023-03-26T03:36:59.271Z,99708.53
2023-03-26T03:38:54.653Z,99716.50
2023-03-26T03:40:49.902Z,99709.09
2023-03-26T03:42:45.537Z,99715.00
2023-03-26T03:44:40.526Z,99718.28
2023-03-26T03:46:38.575Z,99715.66
2023-03-26T03:48:33.612Z,99712.09
2023-03-26T03:50:29.141Z,99722.69
2023-03-26T03:52:24.218Z,99711.91
2023-03-26T03:54:19.566Z,99717.84
2023-03-26T03:56:14.897Z,99718.66
2023-03-26T03:58:10.288Z,99710.28
2023-03-26T04:00:08.185Z,99717.59
2023-03-26T04:02:06.711Z,99724.63
2023-03-26T04:04:02.296Z,99719.50
2023-03-26T04:05:58.379Z,99714.28
2023-03-26T04:07:53.374Z,99724.63
2023-03-26T04:09:48.850Z,99719.25
2023-03-26T04:11:43.938Z,99727.78
2023-03-26T04:13:39.639Z,99740.31
2023-03-26T04:15:36.109Z,99720.22
2023-03-26T04:17:34.304Z,99729.16
2023-03-26T04:19:29.648Z,99733.53
2023-03-26T04:21:26.455Z,99726.53
2023-03-26T04:23:22.676Z,99731.09
2023-03-26T04:25:18.304Z,99727.63
2023-03-26T04:27:18.281Z,99725.00
2023-03-26T04:29:18.334Z,99731.22
2023-03-26T04:31:16.556Z,99725.84
2023-03-26T04:33:17.155Z,99723.66
2023-03-26T04:35:16.720Z,99719.09
2023-03-26T04:37:17.071Z,99726.94
2023-03-26T04:39:14.599Z,99728.75
2023-03-26T04:41:11.500Z,99726.94
2023-03-26T04:43:06.875Z,99722.69
2023-03-26T04:45:03.216Z,99731.38
2023-03-26T04:46:58.313Z,99731.38
2023-03-26T04:48:57.654Z,99734.97
2023-03-26T04:50:53.049Z,99729.72
2023-03-26T04:52:48.643Z,99731.22
2023-03-26T04:54:47.381Z,99734.00
2023-03-26T04:56:48.628Z,99721.72
2023-03-26T04:58:43.685Z,99723.22
2023-03-26T05:00:39.088Z,99727.78
2023-03-26T05:02:34.299Z,99717.44
2023-03-26T05:04:34.165Z,99731.66
2023-03-26T05:06:34.431Z,99726.44
2023-03-26T05:08:30.674Z,99722.97
2023-03-26T05:10:26.401Z,99725.47
2023-03-26T05:12:22.022Z,99720.34
2023-03-26T05:14:17.252Z,99720.91
2023-03-26T05:16:13.507Z,99721.03
2023-03-26T05:18:09.044Z,99720.06
2023-03-26T05:20:09.047Z,99720.06
2023-03-26T05:22:04.115Z,99720.75
2023-03-26T05:23:59.577Z,99724.19
2023-03-26T05:25:54.814Z,99725.00
2023-03-26T05:27:50.703Z,99725.97
2023-03-26T05:29:46.045Z,99728.47
2023-03-26T05:31:41.452Z,99727.50
2023-03-26T05:33:36.879Z,99720.63
2023-03-26T05:35:34.998Z,99720.22
2023-03-26T05:37:32.049Z,99723.50
2023-03-26T05:39:27.764Z,99737.28
2023-03-26T05:41:22.852Z,99723.50
2023-03-26T05:43:18.240Z,99717.16
2023-03-26T05:45:15.479Z,99718.97
2023-03-26T05:47:10.995Z,99729.28
2023-03-26T05:49:06.350Z,99728.47
2023-03-26T05:51:04.388Z,99725.53
2023-03-26T05:52:59.469Z,99733.41
2023-03-26T05:54:55.019Z,99740.59
2023-03-26T05:56:50.174Z,99726.34
2023-03-26T05:58:45.915Z,99723.47
2023-03-26T06:00:41.244Z,99735.31
2023-03-26T06:02:36.654Z,99732.81
2023-03-26T06:04:32.088Z,99733.66
2023-03-26T06:06:33.097Z,99733.34
2023-03-26T06:08:29.391Z,99728.41
2023-03-26T06:10:25.034Z,99741.22
2023-03-26T06:12:20.410Z,99733.50
2023-03-26T06:14:16.078Z,99729.91
2023-03-26T06:16:21.117Z,99731.25
2023-03-26T06:18:23.175Z,99726.84
2023-03-26T06:20:18.852Z,99733.06
2023-03-26T06:22:17.113Z,99738.59
2023-03-26T06:24:12.712Z,99734.56
2023-03-26T06:26:08.699Z,99727.22
2023-03-26T06:28:03.990Z,99743.13
2023-03-26T06:29:59.671Z,99731.78
2023-03-26T06:31:55.079Z,99742.13
2023-03-26T06:33:51.469Z,99742.66
2023-03-26T06:35:47.354Z,99744.41
2023-03-26T06:37:45.519Z,99743.81
2023-03-26T06:39:40.903Z,99742.06
2023-03-26T06:41:37.034Z,99750.75
2023-03-26T06:43:33.833Z,99752.53
2023-03-26T06:45:29.641Z,99745.94
2023-03-26T06:47:24.729Z,99751.78
2023-03-26T06:49:20.972Z,99761.28
2023-03-26T06:51:16.065Z,99755.63
2023-03-26T06:53:14.542Z,99754.28
2023-03-26T06:55:10.677Z,99748.72
2023-03-26T06:57:06.149Z,99751.72
2023-03-26T06:59:01.213Z,99754.72
2023-03-26T07:00:57.145Z,99759.84
2023-03-26T07:02:52.422Z,99746.56
2023-03-26T07:04:47.794Z,99756.47
2023-03-26T07:06:42.792Z,99755.94
2023-03-26T07:08:40.984Z,99754.06
2023-03-26T07:10:36.142Z,99752.94
2023-03-26T07:12:31.586Z,99742.06
2023-03-26T07:14:28.082Z,99748.22
2023-03-26T07:16:23.823Z,99741.41
2023-03-26T07:18:18.870Z,99740.47
2023-03-26T07:20:15.535Z,99734.38
2023-03-26T07:22:17.240Z,99731.47
2023-03-26T07:24:17.077Z,99732.22
2023-03-26T07:26:28.492Z,99724.28
2023-03-26T07:28:36.815Z,99737.69
2023-03-26T07:30:39.322Z,99736.09
2023-03-26T07:32:44.916Z,99738.81
2023-03-26T07:34:49.837Z,99737.53
2023-03-26T07:36:55.063Z,99748.41
2023-03-26T07:39:02.385Z,99747.28
2023-03-26T07:41:08.673Z,99740.78
2023-03-26T07:43:08.931Z,99737.53
2023-03-26T07:45:11.403Z,99736.44
2023-03-26T07:47:25.710Z,99734.00
2023-03-26T07:49:22.058Z,99744.66
2023-03-26T07:51:18.922Z,99745.09
2023-03-26T07:53:15.040Z,99746.16
2023-03-26T07:55:15.384Z,99740.59
2023-03-26T07:57:23.010Z,99755.66
2023-03-26T07:59:25.909Z,99744.13
2023-03-26T08:01:29.948Z,99739.44
2023-03-26T08:03:35.142Z,99738.16
2023-03-26T08:05:34.389Z,99744.22
2023-03-26T08:07:42.492Z,99741.59
2023-03-26T08:09:46.067Z,99744.06
2023-03-26T08:11:50.956Z,99738.34
2023-03-26T08:14:00.196Z,99739.06
2023-03-26T08:16:05.802Z,99743.75
2023-03-26T08:18:07.886Z,99736.63
2023-03-26T08:20:17.064Z,99732.44
2023-03-26T08:22:18.010Z,99739.06
2023-03-26T08:24:21.018Z,99729.69
2023-03-26T08:26:24.072Z,99743.84
2023-03-26T08:28:30.674Z,99739.13
2023-03-26T08:30:31.156Z,99730.13
2023-03-26T08:32:27.658Z,99732.13
2023-03-26T08:34:22.775Z,99730.78
2023-03-26T08:36:18.642Z,99737.53
2023-03-26T08:38:15.517Z,99733.88
2023-03-26T08:40:12.574Z,99726.03
2023-03-26T08:42:39.226Z,99730.97
2023-03-26T08:45:09.971Z,99726.81
2023-03-26T08:47:34.732Z,99727.50
2023-03-26T08:49:57.989Z,99733.19
2023-03-26T08:52:24.815Z,99735.72
2023-03-26T08:54:49.825Z,99719.91
2023-03-26T08:56:55.122Z,99723.97
2023-03-26T08:59:21.773Z,99721.16
2023-03-26T09:01:45.569Z,99708.91
2023-03-26T09:04:34.858Z,99708.53
2023-03-26T09:07:06.839Z,99713.53
2023-03-26T09:09:32.357Z,99713.88
2023-03-26T09:11:53.841Z,99710.44
2023-03-26T09:14:11.727Z,99705.91
2023-03-26T09:16:25.941Z,99703.81
2023-03-26T09:18:55.755Z,99702.56
2023-03-26T09:21:25.670Z,99706.66
2023-03-26T09:23:45.772Z,99701.25
2023-03-26T09:26:28.115Z,99699.63
2023-03-26T09:28:55.258Z,99695.88
2023-03-26T09:31:25.092Z,99682.75
2023-03-26T09:33:56.150Z,99682.97
2023-03-26T09:35:57.266Z,99687.22
2023-03-26T09:38:00.438Z,99683.84
2023-03-26T09:40:17.623Z,99685.63
2023-03-26T09:42:20.883Z,99679.28
2023-03-26T09:44:40.800Z,99685.81
2023-03-26T09:46:46.704Z,99712.91
2023-03-26T09:49:25.469Z,99700.59
2023-03-26T09:51:35.523Z,99688.63
2023-03-26T09:53:50.691Z,99676.19
2023-03-26T09:56:04.226Z,99687.91
2023-03-26T09:58:12.620Z,99691.88
2023-03-26T10:00:25.877Z,99697.13
2023-03-26T10:02:47.611Z,99692.75
2023-03-26T10:05:07.609Z,99686.19
2023-03-26T10:07:09.852Z,99705.50
2023-03-26T10:09:25.205Z,99692.59
2023-03-26T10:11:34.800Z,99700.28
2023-03-26T10:13:37.781Z,99696.84
2023-03-26T10:15:43.695Z,99690.31
2023-03-26T10:17:52.652Z,99697.22
2023-03-26T10:20:09.303Z,99697.59
2023-03-26T10:22:16.027Z,99699.84
2023-03-26T10:24:21.231Z,99691.69
2023-03-26T10:26:36.726Z,99694.13
2023-03-26T10:28:56.908Z,99694.78
2023-03-26T10:31:10.771Z,99685.78
2023-03-26T10:33:17.271Z,99687.56
2023-03-26T10:35:24.733Z,99684.78
2023-03-26T10:37:28.008Z,99686.09
2023-03-26T10:39:48.677Z,99692.34
2023-03-26T10:41:57.687Z,99690.53
2023-03-26T10:44:29.623Z,99680.84
2023-03-26T10:46:44.392Z,99680.34
2023-03-26T10:49:15.806Z,99688.22
2023-03-26T10:51:36.489Z,99678.69
2023-03-26T10:53:38.536Z,99690.66
2023-03-26T10:55:40.314Z,99686.44
2023-03-26T10:57:46.860Z,99679.88
2023-03-26T10:59:42.266Z,99681.09
2023-03-26T11:01:49.040Z,99678.13
2023-03-26T11:03:52.982Z,99682.72
2023-03-26T11:05:54.256Z,99678.63
2023-03-26T11:07:58.434Z,99690.28
2023-03-26T11:10:00.434Z,99680.91
2023-03-26T11:12:00.719Z,99679.88
2023-03-26T11:14:07.276Z,99681.38
2023-03-26T11:16:08.102Z,99676.00
2023-03-26T11:18:14.523Z,99679.63
2023-03-26T11:20:16.384Z,99668.25
2023-03-26T11:22:23.537Z,99674.38
2023-03-26T11:24:44.068Z,99673.69
2023-03-26T11:26:50.157Z,99671.22
2023-03-26T11:29:32.261Z,99674.84
2023-03-26T11:31:35.894Z,99673.00
2023-03-26T11:33:37.892Z,99694.84
2023-03-26T11:35:45.454Z,99675.41
2023-03-26T11:37:46.486Z,99666.47
2023-03-26T11:39:48.884Z,99666.47
2023-03-26T11:41:44.044Z,99656.94
2023-03-26T11:43:39.621Z,99660.03
2023-03-26T11:45:40.916Z,99658.91
2023-03-26T11:47:41.729Z,99667.63
2023-03-26T11:49:37.177Z,99659.25
2023-03-26T11:51:35.665Z,99661.72
2023-03-26T11:53:34.738Z,99664.16
2023-03-26T11:55:30.443Z,99657.28
2023-03-26T11:57:33.369Z,99650.34
2023-03-26T11:59:36.987Z,99650.00
2023-03-26T12:01:53.142Z,99652.78
2023-03-26T12:04:01.488Z,99644.03
2023-03-26T12:06:02.915Z,99641.19
2023-03-26T12:08:00.282Z,99644.97
2023-03-26T12:09:56.916Z,99633.19
2023-03-26T12:12:14.900Z,99627.84
2023-03-26T12:14:11.071Z,99627.50
2023-03-26T12:16:14.799Z,99623.22
2023-03-26T12:18:27.882Z,99620.81
2023-03-26T12:20:36.958Z,99610.72
2023-03-26T12:22:36.322Z,99614.97
2023-03-26T12:24:33.532Z,99614.53
2023-03-26T12:26:37.628Z,99604.09
2023-03-26T12:28:35.098Z,99606.13
2023-03-26T12:30:33.928Z,99607.22
2023-03-26T12:32:45.644Z,99611.66
2023-03-26T12:34:45.038Z,99605.19
2023-03-26T12:36:40.531Z,99599.75
2023-03-26T12:38:38.290Z,99600.44
2023-03-26T12:40:36.780Z,99598.34
2023-03-26T12:44:49.933Z,99604.47
2023-03-26T12:44:58.919Z,99606.25
2023-03-26T12:47:56.447Z,99617.47
2023-03-26T12:49:26.856Z,99609.16
2023-03-26T12:51:34.512Z,99607.53
2023-03-26T12:53:41.880Z,99610.34
2023-03-26T12:55:45.114Z,99597.66
2023-03-26T12:57:46.358Z,99606.50
2023-03-26T12:59:52.737Z,99602.94
2023-03-26T13:01:57.474Z,99606.34
2023-03-26T13:04:15.418Z,99607.22
2023-03-26T13:06:26.751Z,99604.97
2023-03-26T13:08:42.311Z,99607.94
2023-03-26T13:10:51.477Z,99602.44
2023-03-26T13:13:01.938Z,99600.22
2023-03-26T13:15:10.426Z,99593.16
2023-03-26T13:17:15.206Z,99598.38
2023-03-26T13:19:15.262Z,99598.22
2023-03-26T13:21:15.538Z,99594.38
2023-03-26T13:23:20.887Z,99596.75
2023-03-26T13:25:33.750Z,99600.34
2023-03-26T13:27:44.626Z,99606.50
2023-03-26T13:29:48.034Z,99600.72
2023-03-26T13:31:51.447Z,99589.91
2023-03-26T13:33:57.860Z,99589.19
2023-03-26T13:36:19.051Z,99586.13
2023-03-26T13:38:23.955Z,99587.78
2023-03-26T13:40:31.893Z,99577.59
2023-03-26T13:42:40.346Z,99578.97
2023-03-26T13:44:46.168Z,99578.28
2023-03-26T13:46:45.495Z,99578.75
2023-03-26T13:48:50.311Z,99581.84
2023-03-26T13:50:52.782Z,99587.13
2023-03-26T13:52:53.182Z,99579.88
2023-03-26T13:54:52.597Z,99579.34
2023-03-26T13:56:55.989Z,99583.28
2023-03-26T13:58:57.073Z,99584.00
2023-03-26T14:00:57.405Z,99579.31
2023-03-26T14:02:59.869Z,99577.31
2023-03-26T14:04:59.546Z,99577.41
2023-03-26T14:07:01.602Z,99574.47
2023-03-26T14:09:02.759Z,99566.66
2023-03-26T14:11:06.466Z,99569.00
2023-03-26T14:13:09.935Z,99563.53
2023-03-26T14:15:07.595Z,99570.00
2023-03-26T14:17:09.545Z,99567.91
2023-03-26T14:19:24.929Z,99563.94
2023-03-26T14:21:43.304Z,99559.16
2023-03-26T14:23:57.204Z,99567.84
2023-03-26T14:26:04.644Z,99567.13
2023-03-26T14:28:26.689Z,99565.31
2023-03-26T14:30:54.612Z,99568.75
2023-03-26T14:33:04.239Z,99564.81
2023-03-26T14:35:21.679Z,99561.34
2023-03-26T14:37:42.454Z,99558.53
2023-03-26T14:40:05.852Z,99557.81
2023-03-26T14:42:05.417Z,99555.84
2023-03-26T14:44:27.644Z,99554.84
2023-03-26T14:46:38.118Z,99544.63
2023-03-26T14:49:01.956Z,99547.91
2023-03-26T14:51:07.447Z,99553.41
2023-03-26T14:53:06.216Z,99552.59
2023-03-26T14:55:07.655Z,99545.44
2023-03-26T14:57:29.158Z,99545.75
2023-03-26T14:59:54.656Z,99550.78
2023-03-26T15:02:21.009Z,99543.50
2023-03-26T15:04:49.201Z,99537.53
2023-03-26T15:07:26.530Z,99541.47
2023-03-26T15:09:54.030Z,99532.34
2023-03-26T15:11:56.307Z,99540.72
2023-03-26T15:14:46.570Z,99531.88
2023-03-26T15:17:12.728Z,99534.56
2023-03-26T15:19:44.249Z,99533.50
2023-03-26T15:22:18.730Z,99534.25
2023-03-26T15:24:35.364Z,99533.03
2023-03-26T15:27:01.788Z,99531.63
2023-03-26T15:29:34.196Z,99534.34
2023-03-26T15:31:59.217Z,99528.69
2023-03-26T15:34:31.741Z,99531.78
2023-03-26T15:36:58.952Z,99537.25
2023-03-26T15:39:32.924Z,99537.16
2023-03-26T15:41:34.739Z,99535.13
2023-03-26T15:44:24.138Z,99535.09
2023-03-26T15:46:36.078Z,99532.22
2023-03-26T15:48:52.289Z,99535.63
2023-03-26T15:50:56.962Z,99528.53
2023-03-26T15:53:05.460Z,99533.69
2023-03-26T15:55:06.701Z,99544.31
2023-03-26T15:57:19.977Z,99538.19
2023-03-26T15:59:28.384Z,99535.78
2023-03-26T16:01:40.801Z,99533.81
2023-03-26T16:03:44.382Z,99532.59
2023-03-26T16:06:10.533Z,99526.63
2023-03-26T16:08:14.957Z,99529.78
2023-03-26T16:10:26.422Z,99533.28
2023-03-26T16:12:32.722Z,99537.94
2023-03-26T16:14:45.769Z,99539.69
2023-03-26T16:16:59.331Z,99537.66
2023-03-26T16:19:01.181Z,99537.75
2023-03-26T16:20:58.833Z,99535.81
2023-03-26T16:23:04.556Z,99541.47
2023-03-26T16:25:28.688Z,99540.66
2023-03-26T16:27:37.022Z,99537.41
2023-03-26T16:29:34.541Z,99542.72
2023-03-26T16:31:37.805Z,99543.94
2023-03-26T16:33:40.511Z,99537.41
2023-03-26T16:35:43.714Z,99552.16
2023-03-26T16:37:43.964Z,99548.66
2023-03-26T16:39:46.462Z,99551.75
2023-03-26T16:42:06.028Z,99554.13
2023-03-26T16:44:10.823Z,99550.56
2023-03-26T16:46:11.838Z,99555.63
2023-03-26T16:48:18.557Z,99551.19
2023-03-26T16:50:31.210Z,99546.19
2023-03-26T16:52:46.389Z,99548.84
2023-03-26T16:54:51.435Z,99549.38
2023-03-26T16:56:53.529Z,99555.75
2023-03-26T16:58:59.350Z,99560.78
2023-03-26T17:01:07.738Z,99559.28
2023-03-26T17:03:32.006Z,99563.63
2023-03-26T17:05:37.984Z,99566.91
2023-03-26T17:07:39.984Z,99562.56
2023-03-26T17:09:46.688Z,99562.50
2023-03-26T17:11:58.080Z,99564.03
2023-03-26T17:14:03.857Z,99573.41
2023-03-26T17:16:13.068Z,99568.66
2023-03-26T17:18:27.510Z,99573.06
2023-03-26T17:20:33.466Z,99569.69
2023-03-26T17:22:40.361Z,99576.97
2023-03-26T17:24:42.909Z,99574.50
2023-03-26T17:26:53.272Z,99578.59
2023-03-26T17:29:03.841Z,99582.97
2023-03-26T17:31:09.099Z,99579.59
2023-03-26T17:33:16.472Z,99579.88
2023-03-26T17:35:13.944Z,99585.78
2023-03-26T17:37:13.434Z,99575.69
2023-03-26T17:39:24.864Z,99585.28
2023-03-26T17:41:50.132Z,99583.38
2023-03-26T17:43:50.219Z,99587.38
2023-03-26T17:46:02.827Z,99592.56
2023-03-26T17:48:02.558Z,99592.56
2023-03-26T17:50:03.068Z,99597.50
2023-03-26T17:54:55.946Z,99595.94
2023-03-26T17:56:53.156Z,99597.16
2023-03-26T17:58:58.890Z,99596.16
2023-03-26T18:01:17.292Z,99601.47
2023-03-26T18:03:21.381Z,99596.91
2023-03-26T18:05:19.148Z,99593.34
2023-03-26T18:07:44.185Z,99593.47
2023-03-26T18:09:54.623Z,99597.75
2023-03-26T18:12:17.051Z,99602.44
2023-03-26T18:14:31.272Z,99602.53
2023-03-26T18:16:31.454Z,99607.13
2023-03-26T18:18:34.978Z,99607.97
2023-03-26T18:20:32.760Z,99610.34
2023-03-26T18:22:31.435Z,99609.69
2023-03-26T18:24:31.504Z,99608.81
2023-03-26T18:26:36.261Z,99609.59
2023-03-26T18:28:33.671Z,99605.16
2023-03-26T18:30:31.934Z,99603.88
2023-03-26T18:32:31.127Z,99609.59
2023-03-26T18:34:29.269Z,99614.97
2023-03-26T18:36:27.934Z,99607.50
2023-03-26T18:38:37.130Z,99608.34
2023-03-26T18:40:42.484Z,99608.63
2023-03-26T18:42:37.601Z,99615.22
2023-03-26T18:44:38.407Z,99611.56
2023-03-26T18:46:36.960Z,99619.16
2023-03-26T18:48:32.749Z,99613.78
2023-03-26T18:50:31.280Z,99615.59
2023-03-26T18:52:26.916Z,99619.03
2023-03-26T18:54:23.907Z,99617.88
2023-03-26T18:56:30.545Z,99622.50
2023-03-26T18:58:30.206Z,99617.09
2023-03-26T19:00:28.720Z,99613.91
2023-03-26T19:02:28.458Z,99611.13
2023-03-26T19:04:25.296Z,99614.97
2023-03-26T19:06:21.186Z,99619.03
2023-03-26T19:08:19.291Z,99616.59
2023-03-26T19:10:21.511Z,99618.94
2023-03-26T19:12:22.940Z,99622.25
2023-03-26T19:14:21.159Z,99616.53
2023-03-26T19:16:23.803Z,99619.81
2023-03-26T19:18:25.362Z,99624.09
2023-03-26T19:20:24.735Z,99629.41
2023-03-26T19:22:21.245Z,99631.63
2023-03-26T19:24:17.631Z,99634.41
2023-03-26T19:26:14.415Z,99632.44
2023-03-26T19:28:18.587Z,99633.41
2023-03-26T19:30:28.446Z,99634.41
2023-03-26T19:32:32.650Z,99629.69
2023-03-26T19:34:35.536Z,99634.97
2023-03-26T19:36:32.541Z,99635.59
2023-03-26T19:38:29.454Z,99636.47
2023-03-26T19:40:30.008Z,99635.97
2023-03-26T19:42:43.131Z,99633.19
2023-03-26T19:44:42.447Z,99641.78
2023-03-26T19:46:53.448Z,99641.94
2023-03-26T19:48:52.010Z,99636.53
2023-03-26T19:51:02.795Z,99640.16
2023-03-26T19:53:19.092Z,99640.97
2023-03-26T19:55:22.594Z,99639.97
2023-03-26T19:57:17.690Z,99641.47
2023-03-26T19:59:14.296Z,99640.84
2023-03-26T20:01:13.619Z,99640.53
2023-03-26T20:03:09.130Z,99639.88
2023-03-26T20:05:04.653Z,99637.72
2023-03-26T20:07:02.646Z,99643.81
2023-03-26T20:08:57.999Z,99644.97
2023-03-26T20:10:53.497Z,99641.88
2023-03-26T20:12:48.794Z,99646.13
2023-03-26T20:14:45.932Z,99647.47
2023-03-26T20:16:42.906Z,99650.59
2023-03-26T20:18:40.031Z,99651.41
2023-03-26T20:20:36.589Z,99655.88
2023-03-26T20:22:34.775Z,99652.59
2023-03-26T20:24:36.068Z,99660.81
2023-03-26T20:26:31.505Z,99661.16
2023-03-26T20:28:26.737Z,99662.47
2023-03-26T20:30:36.936Z,99674.34
2023-03-26T20:32:32.700Z,99673.03
2023-03-26T20:34:28.090Z,99675.50
2023-03-26T20:36:33.420Z,99681.91
2023-03-26T20:38:38.936Z,99674.34
2023-03-26T20:40:35.866Z,99679.81
2023-03-26T20:42:31.009Z,99683.56
2023-03-26T20:44:28.240Z,99690.97
2023-03-26T20:46:30.791Z,99693.41
2023-03-26T20:48:27.107Z,99698.34
2023-03-26T20:50:24.803Z,99694.06
2023-03-26T20:52:20.243Z,99696.03
2023-03-26T20:54:21.471Z,99703.28
2023-03-26T20:56:19.064Z,99704.75
2023-03-26T20:58:18.249Z,99698.50
2023-03-26T21:00:27.017Z,99704.19
2023-03-26T21:02:23.691Z,99702.88
2023-03-26T21:04:20.891Z,99705.34
2023-03-26T21:06:16.689Z,99706.50
2023-03-26T21:08:18.278Z,99711.09
2023-03-26T21:10:19.471Z,99710.75
2023-03-26T21:12:24.846Z,99717.00
2023-03-26T21:14:24.329Z,99715.38
2023-03-26T21:16:21.005Z,99717.19
2023-03-26T21:18:17.135Z,99717.84
2023-03-26T21:20:16.840Z,99722.25
2023-03-26T21:22:22.726Z,99731.13
2023-03-26T21:24:29.764Z,99731.63
2023-03-26T21:26:33.463Z,99732.09
2023-03-26T21:28:42.014Z,99729.47
2023-03-26T21:30:38.391Z,99734.38
2023-03-26T21:32:35.521Z,99732.72
2023-03-26T21:34:33.437Z,99738.13
2023-03-26T21:36:29.897Z,99742.41
2023-03-26T21:38:26.214Z,99737.97
2023-03-26T21:40:22.667Z,99739.25
2023-03-26T21:42:21.151Z,99739.25
2023-03-26T21:44:18.468Z,99742.88
2023-03-26T21:46:15.436Z,99742.53
2023-03-26T21:48:12.227Z,99746.78
2023-03-26T21:50:10.024Z,99738.13
2023-03-26T21:52:06.253Z,99743.84
2023-03-26T21:54:02.253Z,99743.19
2023-03-26T21:56:03.228Z,99744.50
2023-03-26T21:58:14.894Z,99739.56
2023-03-26T22:00:15.378Z,99746.59
2023-03-26T22:02:19.121Z,99736.41
2023-03-26T22:04:21.226Z,99743.63
2023-03-26T22:06:19.864Z,99739.03
2023-03-26T22:08:24.396Z,99740.34
2023-03-26T22:10:19.734Z,99746.06
2023-03-26T22:12:16.885Z,99746.53
2023-03-26T22:14:15.100Z,99752.91
2023-03-26T22:16:12.437Z,99747.19
2023-03-26T22:18:08.223Z,99748.44
2023-03-26T22:20:07.709Z,99757.63
2023-03-26T22:22:03.785Z,99753.53
2023-03-26T22:23:59.213Z,99751.88
2023-03-26T22:25:54.723Z,99754.13
2023-03-26T22:27:51.752Z,99751.81
2023-03-26T22:29:49.656Z,99752.78
2023-03-26T22:31:45.495Z,99762.63
2023-03-26T22:33:41.578Z,99752.28
2023-03-26T22:35:37.505Z,99757.38
2023-03-26T22:37:32.804Z,99761.13
2023-03-26T22:39:28.906Z,99764.88
2023-03-26T22:41:24.641Z,99759.41
2023-03-26T22:43:20.296Z,99759.41
2023-03-26T22:45:18.039Z,99763.03
2023-03-26T22:47:13.755Z,99761.84
2023-03-26T22:49:09.176Z,99764.94
2023-03-26T22:51:06.462Z,99771.28
2023-03-26T22:53:01.745Z,99771.09
2023-03-26T22:54:57.207Z,99765.47
2023-03-26T22:56:52.474Z,99773.19
2023-03-26T22:58:48.182Z,99774.00
2023-03-26T23:00:46.407Z,99781.88
2023-03-26T23:02:41.984Z,99780.38
2023-03-26T23:04:37.732Z,99782.84
2023-03-26T23:06:33.506Z,99784.78
2023-03-26T23:08:28.742Z,99782.66
2023-03-26T23:10:24.609Z,99781.56
2023-03-26T23:12:19.617Z,99789.63
2023-03-26T23:14:15.282Z,99784.38
2023-03-26T23:16:14.378Z,99791.25
2023-03-26T23:18:11.358Z,99791.41
2023-03-26T23:20:15.130Z,99795.97
2023-03-26T23:22:14.303Z,99801.00
2023-03-26T23:24:10.157Z,99794.25
2023-03-26T23:26:07.432Z,99802.13
2023-03-26T23:28:03.659Z,99812.47
2023-03-26T23:29:59.516Z,99813.41
2023-03-26T23:31:57.609Z,99809.31
2023-03-26T23:33:53.356Z,99822.72
2023-03-26T23:35:50.069Z,99821.50
2023-03-26T23:37:45.596Z,99825.94
2023-03-26T23:39:40.639Z,99823.31
2023-03-26T23:41:36.871Z,99823.59
2023-03-26T23:43:31.975Z,99824.72
2023-03-26T23:45:27.412Z,99828.63
2023-03-26T23:47:25.380Z,99833.72
2023-03-26T23:49:20.919Z,99837.97
2023-03-26T23:51:16.765Z,99845.47
2023-03-26T23:53:12.150Z,99849.34
2023-03-26T23:55:08.641Z,99846.72
2023-03-26T23:57:04.066Z,99860.94
2023-03-26T23:58:59.427Z,99863.56
